Overview Statistics Trail Chart Weather Telemetry Raw packets
 

This is the latest recevied weather packets stored in our database for station/object W5MAI. If no packets are shown the sender has not sent any weather packets the latest 10 day(s).

<< 45 46 47 48 49 >>
Time Temp. Humidity Pressure Rain* Wind** Luminosity Snow
1787840053 28.33° C 74% 1018.4 hPa 0 mm - 274 W/m² -
1787838239 26.67° C 77% 1018 hPa 0 mm - 190 W/m² -
1787837658 26.11° C 77% 1018 hPa 0 mm - 146 W/m² -
1787837021 25.56° C 79% 1017.8 hPa 0 mm - 113 W/m² -
1787836446 25° C 81% 1018.1 hPa 0 mm - 90 W/m² -
1787835806 23.89° C 82% 1018.2 hPa 0 mm - 70 W/m² -
1787833425 22.78° C 83% 1017.9 hPa 0 mm - 19 W/m² -
1787832860 22.78° C 82% 1017.7 hPa 0 mm - 0 W/m² -
1787832224 23.33° C 81% 1017.5 hPa 0 mm - 0 W/m² -
1787831645 23.33° C 81% 1017.4 hPa 0 mm - 0 W/m² -
1787831014 23.33° C 80% 1017.2 hPa 0 mm - 0 W/m² -
1787830420 23.89° C 79% 1017.2 hPa 0 mm - 0 W/m² -
1787829850 23.89° C 78% 1017.1 hPa 0 mm - 0 W/m² -
1787829204 24.44° C 77% 1017.2 hPa 0 mm - 0 W/m² -
1787828014 25.56° C 75% 1017.1 hPa 0 mm - 0 W/m² -
1787827434 25.56° C 74% 1017.1 hPa 0 mm - 0 W/m² -
1787826847 26.11° C 73% 1017 hPa 0 mm - 0 W/m² -
1787826259 26.11° C 73% 1017 hPa 0 mm - 0 W/m² -
1787825623 26.11° C 73% 1017.1 hPa 0 mm - 0 W/m² -
1787825029 25.56° C 74% 1017.1 hPa 0 mm - 0 W/m² -
1787824458 25° C 75% 1017 hPa 0 mm - 0 W/m² -
1787823804 24.44° C 77% 1017 hPa 0 mm - 0 W/m² -
1787823210 24.44° C 78% 1017 hPa 0 mm - 0 W/m² -
1787822620 24.44° C 77% 1017.1 hPa 0 mm - 0 W/m² -
1787822049 25° C 76% 1017 hPa 0 mm - 0 W/m² -

* Rain latest hour (hover to see other rain measurements)
** Current wind speed in m/s (hover to see current wind gust speed)